• Join FlightAware (Why Join?)
  • Login
  • US Flag 
08:44AM EDT


 

Airport Tracker/Info


-or-


 

Live Flight TrackerFlight Track Log ✈ AVN10 ✈ 06-Nov-2013 ✈ NVVV / VLI - YSSY / SYD

Flight Track Log - Related Links

Times and Time Zones

All times are in EST time to prevent confusion due to time zone crossing. See the AVN10 flight status page for this flight to view local times or setup timezone preferences in your user account.

Time Position Orientation Groundspeed Altitude Reporting Facility
EST Latitude Longitude Course Direction KTS MPH feet Rate Location/Type
11:49PM -17.9533 168.0465 226° Southwest  Level FlightAware Approximate
11:50PM -18.0379 167.9552 226° Southwest  Level FlightAware Approximate
11:51PM -18.1225 167.8639 226° Southwest  Level FlightAware Approximate
11:52PM -18.2070 167.7724 226° Southwest  Level FlightAware Approximate
11:53PM -18.2914 167.6809 226° Southwest  Level FlightAware Approximate
11:54PM -18.3759 167.5892 226° Southwest  Level FlightAware Approximate
11:55PM -18.4602 167.4975 226° Southwest  Level FlightAware Approximate
11:56PM -18.5446 167.4057 226° Southwest  Level FlightAware Approximate
11:57PM -18.6288 167.3138 226° Southwest  Level FlightAware Approximate
11:58PM -18.7131 167.2218 226° Southwest  Level FlightAware Approximate
11:59PM -18.7973 167.1297 226° Southwest  Level FlightAware Approximate
12:00AM -18.8814 167.0376 226° Southwest  Level FlightAware Approximate
12:01AM -18.9655 166.9453 226° Southwest  Level FlightAware Approximate
12:02AM -19.0496 166.8530 226° Southwest  Level FlightAware Approximate
12:03AM -19.1336 166.7605 226° Southwest  Level FlightAware Approximate
12:04AM -19.2176 166.6680 226° Southwest  Level FlightAware Approximate
12:05AM -19.3015 166.5753 226° Southwest  Level FlightAware Approximate
12:06AM -19.3853 166.4826 226° Southwest  Level FlightAware Approximate
12:07AM -19.4692 166.3898 226° Southwest  Level FlightAware Approximate
12:08AM -19.5529 166.2968 226° Southwest  Level FlightAware Approximate
12:09AM -19.6367 166.2038 226° Southwest  Level FlightAware Approximate
12:10AM -19.7204 166.1107 226° Southwest  Level FlightAware Approximate
12:11AM -19.8040 166.0175 226° Southwest  Level FlightAware Approximate
12:12AM -19.8876 165.9242 226° Southwest  Level FlightAware Approximate
12:13AM -19.9711 165.8307 226° Southwest  Level FlightAware Approximate
12:14AM -20.0546 165.7372 226° Southwest  Level FlightAware Approximate
12:15AM -20.1380 165.6436 226° Southwest  Level FlightAware Approximate
12:16AM -20.2214 165.5499 227° Southwest  Level FlightAware Approximate
12:17AM -20.3048 165.4561 227° Southwest  Level FlightAware Approximate
12:18AM -20.3881 165.3622 227° Southwest  Level FlightAware Approximate
12:19AM -20.4713 165.2682 227° Southwest  Level FlightAware Approximate
12:20AM -20.5545 165.1741 227° Southwest  Level FlightAware Approximate
12:21AM -20.6376 165.0798 227° Southwest  Level FlightAware Approximate
12:22AM -20.7207 164.9855 227° Southwest  Level FlightAware Approximate
12:23AM -20.8037 164.8911 227° Southwest  Level FlightAware Approximate
12:24AM -20.8867 164.7966 227° Southwest  Level FlightAware Approximate
12:25AM -20.9697 164.7019 227° Southwest  Level FlightAware Approximate
12:26AM -21.0525 164.6072 227° Southwest  Level FlightAware Approximate
12:27AM -21.1354 164.5123 227° Southwest  Level FlightAware Approximate
12:28AM -21.2181 164.4174 227° Southwest  Level FlightAware Approximate
12:29AM -21.3009 164.3223 227° Southwest  Level FlightAware Approximate
12:30AM -21.3835 164.2272 227° Southwest  Level FlightAware Approximate
12:31AM -21.4661 164.1319 227° Southwest  Level FlightAware Approximate
12:32AM -21.5487 164.0365 227° Southwest  Level FlightAware Approximate
12:33AM -21.6312 163.9410 227° Southwest  Level FlightAware Approximate
12:34AM -21.7136 163.8454 227° Southwest  Level FlightAware Approximate
12:35AM -21.7960 163.7497 227° Southwest  Level FlightAware Approximate
12:36AM -21.8784 163.6539 227° Southwest  Level FlightAware Approximate
12:36AM -21.8949 163.6345 219° Southwest 36,000  Level Aus ATC (Calculated)
12:38AM -22.0473 163.4567 227° Southwest  Level FlightAware Approximate
12:39AM -22.1273 163.3630 227° Southwest  Level FlightAware Approximate
12:39AM -22.1511 163.3351 219° Southwest 36,000  Level Aus ATC (Calculated)
12:41AM -22.3031 163.1567 227° Southwest  Level FlightAware Approximate
12:41AM -22.3056 163.1538 219° Southwest 36,000  Level Aus ATC (Calculated)
12:42AM -22.3856 163.0597 227° Southwest  Level FlightAware Approximate
12:43AM -22.4654 162.9655 227° Southwest  Level FlightAware Approximate
12:43AM -22.4865 162.9407 218° Southwest 36,000  Level Aus ATC (Calculated)
12:43AM -22.5531 162.8620 218° Southwest 36,000  Level Aus ATC (Calculated)
12:45AM -22.6434 162.7550 228° Southwest  Level FlightAware Approximate
12:45AM -22.6820 162.7093 218° Southwest 36,000  Level Aus ATC (Calculated)
12:46AM -22.8008 162.5681 218° Southwest 36,000  Level Aus ATC (Calculated)
12:47AM -22.7913 162.5794 228° Southwest  Level FlightAware Approximate
12:48AM -22.9165 162.4303 228° Southwest  Level FlightAware Approximate
12:49AM -22.9944 162.3372 228° Southwest  Level FlightAware Approximate
12:50AM -23.0723 162.2441 228° Southwest  Level FlightAware Approximate
12:50AM -23.1401 162.1629 217° Southwest 36,000  Level Aus ATC (Calculated)
12:51AM -23.1501 162.1509 228° Southwest  Level FlightAware Approximate
12:52AM -23.2334 162.0509 228° Southwest  Level FlightAware Approximate
12:53AM -23.3111 161.9574 228° Southwest  Level FlightAware Approximate
12:53AM -23.3692 161.8875 217° Southwest 36,000  Level Aus ATC (Calculated)
12:55AM -23.4752 161.7594 228° Southwest  Level FlightAware Approximate
12:56AM -23.5527 161.6656 228° Southwest  Level FlightAware Approximate
12:57AM -23.6302 161.5717 228° Southwest  Level FlightAware Approximate
12:58AM -23.7076 161.4776 228° Southwest  Level FlightAware Approximate
12:59AM -23.7850 161.3835 228° Southwest  Level FlightAware Approximate
01:00AM -23.8623 161.2892 228° Southwest  Level FlightAware Approximate
01:01AM -23.9395 161.1949 228° Southwest  Level FlightAware Approximate
01:02AM -24.0167 161.1004 228° Southwest  Level FlightAware Approximate
01:03AM -24.0938 161.0058 228° Southwest  Level FlightAware Approximate
01:04AM -24.1709 160.9111 228° Southwest  Level FlightAware Approximate
01:05AM -24.2479 160.8163 228° Southwest  Level FlightAware Approximate
01:06AM -24.3249 160.7213 228° Southwest  Level FlightAware Approximate
01:07AM -24.4018 160.6263 228° Southwest  Level FlightAware Approximate
01:08AM -24.4786 160.5311 228° Southwest  Level FlightAware Approximate
01:09AM -24.5554 160.4358 228° Southwest  Level FlightAware Approximate
01:10AM -24.6321 160.3404 228° Southwest  Level FlightAware Approximate
01:11AM -24.5554 160.4358 49° Northeast  Level FlightAware Approximate
01:12AM -24.6460 160.3564 212° Southwest  Level Estimated
01:13AM -24.7446 160.2897 212° Southwest  Level FlightAware Approximate
01:14AM -24.8432 160.2228 212° Southwest  Level FlightAware Approximate
01:15AM -24.9418 160.1559 212° Southwest  Level FlightAware Approximate
01:16AM -25.0404 160.0888 212° Southwest  Level FlightAware Approximate
01:16AM -25.3352 159.8822 212° Southwest 36,000  Level Aus ATC (Calculated)
01:17AM -25.4337 159.8147 212° Southwest  Level FlightAware Approximate
01:17AM -25.5316 159.7475 212° Southwest 36,000  Level Aus ATC (Calculated)
01:18AM -25.5321 159.7472 212° Southwest  Level FlightAware Approximate
01:19AM -25.6291 159.6805 212° Southwest  Level FlightAware Approximate
01:20AM -25.7514 159.5962 212° Southwest  Level FlightAware Approximate
01:21AM -25.8483 159.5293 212° Southwest  Level FlightAware Approximate
01:22AM -25.9452 159.4622 212° Southwest  Level FlightAware Approximate
01:23AM -26.0420 159.3951 212° Southwest  Level FlightAware Approximate
01:24AM -26.1388 159.3278 212° Southwest  Level FlightAware Approximate
01:25AM -26.2356 159.2605 212° Southwest  Level FlightAware Approximate
01:26AM -26.3323 159.1930 212° Southwest  Level FlightAware Approximate
01:27AM -26.4291 159.1254 212° Southwest  Level FlightAware Approximate
01:28AM -26.5258 159.0577 212° Southwest  Level FlightAware Approximate
01:29AM -26.6224 158.9899 212° Southwest  Level FlightAware Approximate
01:30AM -26.7190 158.9219 212° Southwest  Level FlightAware Approximate
01:31AM -26.8156 158.8539 212° Southwest  Level FlightAware Approximate
01:32AM -26.9122 158.7857 212° Southwest  Level FlightAware Approximate
01:32AM -27.0981 158.6541 212° Southwest 36,000  Level Aus ATC (Calculated)
01:33AM -27.1946 158.5856 212° Southwest  Level FlightAware Approximate
01:33AM -27.2933 158.5153 212° Southwest 36,000  Level Aus ATC (Calculated)
01:34AM -27.2910 158.5169 212° Southwest  Level FlightAware Approximate
01:35AM -27.4025 158.4374 212° Southwest  Level FlightAware Approximate
01:36AM -27.4989 158.3685 212° Southwest  Level FlightAware Approximate
01:36AM -27.5858 158.3062 212° Southwest 36,000  Level Aus ATC (Calculated)
01:37AM -27.5952 158.2995 212° Southwest  Level FlightAware Approximate
01:37AM -27.7319 158.2013 37° Northeast 36,000  Level Aus ATC (Calculated)
01:38AM -27.7077 158.2187 212° Southwest  Level FlightAware Approximate
01:39AM -27.8314 158.1297 212° Southwest  Level FlightAware Approximate
01:39AM -27.9266 158.0609 33° Northeast 36,000  Level Aus ATC (Calculated)
01:40AM -27.9275 158.0602 213° Southwest  Level FlightAware Approximate
01:41AM -28.0260 157.9890 213° Southwest  Level FlightAware Approximate
01:41AM -28.1698 157.8848 33° Northeast 36,000  Level Aus ATC (Calculated)
01:42AM -28.1221 157.9194 213° Southwest  Level FlightAware Approximate
01:43AM -28.2747 157.8085 213° Southwest  Level FlightAware Approximate
01:44AM -28.3762 157.7345 213° Southwest  Level FlightAware Approximate
01:45AM -28.4776 157.6604 213° Southwest  Level FlightAware Approximate
01:46AM -28.5790 157.5861 213° Southwest  Level FlightAware Approximate
01:46AM -28.6069 157.5656 33° Northeast 36,000  Level Aus ATC (Calculated)
01:47AM -28.6804 157.5117 213° Southwest  Level FlightAware Approximate
01:48AM -28.7825 157.4365 213° Southwest  Level FlightAware Approximate
01:48AM -27.7140 158.2167 213° Southwest 405 466 36,000  Level Aus ATC (RADAR)
01:48AM -27.7538 158.1861 214° Southwest 432 497 36,000  Level Aus ATC (RADAR)
01:49AM -27.8269 158.1311 214° Southwest 421 484 36,000  Level Aus ATC (RADAR)
01:50AM -27.8876 158.0888 212° Southwest 430 495 36,000  Level Aus ATC (RADAR)
01:50AM -27.9536 158.0359 215° Southwest 439 505 36,000  Level Aus ATC (RADAR)
01:51AM -28.0319 157.9695 217° Southwest 427 491 36,000  Level Aus ATC (RADAR)
01:51AM -28.0559 157.9498 216° Southwest 426 490 36,000  Level Aus ATC (RADAR)
01:52AM -28.1186 157.8970 217° Southwest 424 488 36,000  Level Aus ATC (RADAR)
01:53AM -28.2014 157.8313 215° Southwest 430 495 36,000  Level Aus ATC (RADAR)
01:53AM -28.2579 157.7852 216° Southwest 431 496 36,000  Level Aus ATC (RADAR)
01:55AM -28.3680 157.6927 216° Southwest 423 487 36,000  Level Aus ATC (RADAR)
01:55AM -28.3994 157.6666 216° Southwest 421 484 36,000  Level Aus ATC (RADAR)
01:56AM -28.4553 157.6202 216° Southwest 424 488 36,000  Level Aus ATC (RADAR)
01:56AM -28.5347 157.5542 216° Southwest 425 489 36,000  Level Aus ATC (RADAR)
01:57AM -28.5900 157.5072 217° Southwest 425 489 36,000  Level Aus ATC (RADAR)
01:58AM -28.6625 157.4469 216° Southwest 428 493 36,000  Level Aus ATC (RADAR)
01:58AM -28.7034 157.4129 216° Southwest 432 497 36,000  Level Aus ATC (RADAR)
02:00AM -28.8559 157.2845 216° Southwest 429 494 36,000  Level Aus ATC (RADAR)
02:00AM -28.9127 157.2368 216° Southwest 431 496 36,000  Level Aus ATC (RADAR)
02:00AM -28.9373 157.2164 216° Southwest 433 498 36,000  Level Aus ATC (RADAR)
02:01AM -28.9942 157.1686 216° Southwest 435 501 36,000  Level Aus ATC (RADAR)
02:02AM -29.0751 157.1004 216° Southwest 434 499 36,000  Level Aus ATC (RADAR)
02:03AM -29.1364 157.0472 217° Southwest 426 490 36,000  Level Aus ATC (RADAR)
02:03AM -29.2074 156.9865 217° Southwest 424 488 36,000  Level Aus ATC (RADAR)
02:04AM -29.2876 156.9188 216° Southwest 428 493 36,000  Level Aus ATC (RADAR)
02:04AM -29.3115 156.8983 217° Southwest 429 494 36,000  Level Aus ATC (RADAR)
02:05AM -29.3756 156.8441 216° Southwest 429 494 36,000  Level Aus ATC (RADAR)
02:06AM -29.4234 156.8035 217° Southwest 429 494 36,000  Level Aus ATC (RADAR)
02:06AM -29.5016 156.7364 217° Southwest 421 484 36,000  Level Aus ATC (RADAR)
02:07AM -29.5407 156.7030 217° Southwest 421 484 36,000  Level Aus ATC (RADAR)
02:07AM -29.5960 156.6554 217° Southwest 425 489 36,000 120 Level Aus ATC (RADAR)
02:08AM -29.6665 156.5946 217° Southwest 423 487 36,200 60 Climbing Aus ATC (RADAR)
02:09AM -29.7616 156.5133 217° Southwest 428 493 36,200  Level Aus ATC (RADAR)
02:10AM -29.8263 156.4580 217° Southwest 435 501 36,200  Level Aus ATC (RADAR)
02:10AM -29.8570 156.4310 217° Southwest 427 491 36,200  Level Aus ATC (RADAR)
02:11AM -29.9114 156.3839 217° Southwest 421 484 36,200  Level Aus ATC (RADAR)
02:11AM -29.9669 156.3362 217° Southwest 426 490 36,200  Level Aus ATC (RADAR)
02:12AM -30.0301 156.2813 217° Southwest 427 491 36,200  Level Aus ATC (RADAR)
02:13AM -30.1090 156.2126 217° Southwest 427 491 36,200  Level Aus ATC (RADAR)
02:13AM -30.1325 156.1920 217° Southwest 426 490 36,200  Level Aus ATC (RADAR)
02:14AM -30.1886 156.1433 217° Southwest 430 495 36,200  Level Aus ATC (RADAR)
02:15AM -30.2911 156.0539 217° Southwest 428 493 36,200  Level Aus ATC (RADAR)
02:15AM -30.3391 156.0119 217° Southwest 431 496 36,200  Level Aus ATC (RADAR)
02:16AM -30.3790 155.9771 217° Southwest 432 497 36,200  Level Aus ATC (RADAR)
02:16AM -30.4583 155.9075 217° Southwest 430 495 36,200  Level Aus ATC (RADAR)
02:17AM -30.5220 155.8518 217° Southwest 431 496 36,200  Level Aus ATC (RADAR)
02:18AM -30.5939 155.7887 217° Southwest 433 498 36,200  Level Aus ATC (RADAR)
02:18AM -30.6337 155.7536 217° Southwest 433 498 36,200  Level Aus ATC (RADAR)
02:19AM -30.6897 155.7042 217° Southwest 434 499 36,200  Level Aus ATC (RADAR)
02:20AM -30.8094 155.5985 217° Southwest 433 498 36,200  Level Aus ATC (RADAR)
02:21AM -30.8571 155.5564 217° Southwest 432 497 36,200  Level Aus ATC (RADAR)
02:21AM -30.9127 155.5071 217° Southwest 432 497 36,200  Level Aus ATC (RADAR)
02:22AM -30.9762 155.4506 217° Southwest 432 497 36,200  Level Aus ATC (RADAR)
02:22AM -31.0316 155.4013 217° Southwest 432 497 36,200  Level Aus ATC (RADAR)
02:23AM -31.1035 155.3374 217° Southwest 433 498 36,200  Level Aus ATC (RADAR)
02:24AM -31.1432 155.3017 218° Southwest 434 499 36,200 -420 Level Aus ATC (RADAR)
02:24AM -31.1480 155.2980 217° Southwest 436 502 36,000 -300 Descending FlightAware
02:24AM -31.2120 155.2400 218° Southwest 438 504 36,000 180 Level FlightAware
02:25AM -31.2401 155.2151 217° Southwest 439 505 36,200 300 Climbing Aus ATC (RADAR)
02:25AM -31.2809 155.1785 218° Southwest 442 509 36,200 -300 Level Aus ATC (RADAR)
02:25AM -31.2970 155.1650 217° Southwest 441 507 36,000  Descending FlightAware
02:25AM -31.3212 155.1425 217° Southwest 441 507 36,200  Climbing Aus ATC (RADAR)
02:26AM -31.3450 155.1220 217° Southwest 441 507 36,000  Descending FlightAware
02:26AM -31.3777 155.0918 217° Southwest 440 506 36,200  Climbing Aus ATC (RADAR)
02:26AM -31.3780 155.0920 218° Southwest 441 507 36,000  Descending FlightAware
02:27AM -31.4589 155.0188 218° Southwest 441 507 36,200  Climbing Aus ATC (RADAR)
02:27AM -31.4280 155.0480 217° Southwest 441 507 36,000  Descending FlightAware
02:27AM -31.5155 154.9681 217° Southwest 439 505 36,200  Climbing Aus ATC (RADAR)
02:28AM -31.4780 155.0040 217° Southwest 441 507 36,000  Descending FlightAware
02:28AM -31.5879 154.9023 217° Southwest 440 506 36,200  Climbing Aus ATC (RADAR)
02:28AM -31.6070 154.8860 218° Southwest 441 507 36,000  Descending FlightAware
02:29AM -31.6283 154.8659 218° Southwest 440 506 36,200  Climbing Aus ATC (RADAR)
02:29AM -31.6750 154.8240 218° Southwest 440 506 36,000  Descending FlightAware
02:29AM -31.6848 154.8149 218° Southwest 440 506 36,200  Climbing Aus ATC (RADAR)
02:30AM -31.7290 154.7750 218° Southwest 439 505 36,000 -240 Descending FlightAware
02:30AM -31.7720 154.7360 218° Southwest 438 504 36,000 180 Level FlightAware
02:31AM -31.8285 154.6841 218° Southwest 433 498 36,200  Climbing Aus ATC (RADAR)
02:31AM -31.8350 154.6780 218° Southwest 436 502 36,000  Descending FlightAware
02:31AM -31.8525 154.6621 218° Southwest 433 498 36,200  Climbing Aus ATC (RADAR)
02:31AM -31.8760 154.6410 218° Southwest 435 501 36,000  Descending FlightAware
02:32AM -31.9080 154.6116 218° Southwest 432 497 36,200  Climbing Aus ATC (RADAR)
02:32AM -31.9570 154.5680 218° Southwest 433 498 36,000  Descending FlightAware
02:32AM -31.9953 154.5319 218° Southwest 433 498 36,200 180 Climbing Aus ATC (RADAR)
02:33AM -32.0505 154.4815 218° Southwest 433 498 36,200 -240 Level Aus ATC (RADAR)
02:33AM -32.0740 154.4600 218° Southwest 433 498 36,000  Descending FlightAware
02:34AM -32.1296 154.4093 218° Southwest 432 497 36,200  Climbing Aus ATC (RADAR)
02:34AM -32.1520 154.3890 218° Southwest 434 499 36,000  Descending FlightAware
02:34AM -32.1770 154.3659 218° Southwest 432 497 36,200  Climbing Aus ATC (RADAR)
02:35AM -32.1960 154.3490 218° Southwest 434 499 36,000 -300 Descending FlightAware
02:35AM -32.2530 154.3140 207° Southwest 440 506 36,000  Level FlightAware
02:36AM -32.3050 154.2960 207° Southwest 440 506 36,000 240 Level FlightAware
02:36AM -32.3530 154.2802 207° Southwest 441 507 36,200  Climbing Aus ATC (RADAR)
02:36AM -32.3740 154.2730 196° South 440 506 36,000 -360 Descending FlightAware
02:37AM -32.4140 154.2560 200° South 439 505 36,000 180 Level FlightAware
02:37AM -32.4921 154.1871 200° South 439 505 36,200  Climbing Aus ATC (RADAR)
02:37AM -32.4860 154.1930 200° South 436 502 36,000 -360 Descending FlightAware
02:38AM -32.5440 154.1360 200° South 436 502 36,000 300 Level FlightAware
02:38AM -32.5535 154.1255 200° South 436 502 36,200  Climbing Aus ATC (RADAR)
02:39AM -32.6030 154.0770 200° South 437 503 36,000  Descending FlightAware
02:39AM -32.6230 154.0561 200° South 437 503 36,200 300 Climbing Aus ATC (RADAR)
02:39AM -32.6617 154.0176 200° South 438 504 36,200 -300 Level Aus ATC (RADAR)
02:39AM -32.6920 153.9870 200° South 437 503 36,000 -240 Descending FlightAware
02:40AM -32.7390 153.9410 200° South 437 503 36,000 300 Level FlightAware
02:40AM -32.7540 153.9252 200° South 435 501 36,200  Climbing Aus ATC (RADAR)
02:40AM -32.7820 153.8970 200° South 437 503 36,000  Descending FlightAware
02:41AM -32.7999 153.8786 200° South 435 501 36,200  Climbing Aus ATC (RADAR)
02:41AM -32.8270 153.8520 200° South 437 503 36,000 -240 Descending FlightAware
02:41AM -32.8387 153.8401 200° South 436 502 36,100  Climbing Aus ATC (RADAR)
02:41AM -32.8760 153.8030 200° South 437 503 36,000  Descending FlightAware
02:42AM -32.8924 153.7859 200° South 436 502 36,100 60 Climbing Aus ATC (RADAR)
02:42AM -32.9613 153.7164 200° South 438 504 36,100 -120 Level Aus ATC (RADAR)
02:42AM -32.9680 153.7100 200° South 437 503 36,000  Descending FlightAware
02:43AM -33.0230 153.6543 200° South 437 503 36,100  Climbing Aus ATC (RADAR)
02:43AM -33.0470 153.6300 220° Southwest 438 504 36,000  Descending FlightAware
02:44AM -33.0843 153.5919 220° Southwest 436 502 36,100  Climbing Aus ATC (RADAR)
02:44AM -33.0960 153.5800 220° Southwest 439 505 36,000  Descending FlightAware
02:44AM -33.1310 153.5446 220° Southwest 440 506 36,100  Climbing Aus ATC (RADAR)
02:45AM -33.1670 153.5080 220° Southwest 439 505 36,000  Descending FlightAware
02:45AM -33.2235 153.4507 220° Southwest 439 505 36,100  Climbing Aus ATC (RADAR)
02:45AM -33.2210 153.4540 220° Southwest 439 505 36,000 -240 Descending FlightAware
02:46AM -33.2650 153.4090 221° Southwest 439 505 36,000 180 Level FlightAware
02:46AM -33.2779 153.3959 220° Southwest 441 507 36,100 300 Climbing Aus ATC (RADAR)
02:46AM -33.3008 153.3723 221° Southwest 439 505 36,100  Level Aus ATC (RADAR)
02:47AM -33.3549 153.3171 221° Southwest 440 506 36,100 -120 Level Aus ATC (RADAR)
02:47AM -33.3870 153.2840 221° Southwest 440 506 36,000  Descending FlightAware
02:47AM -33.4320 153.2379 221° Southwest 440 506 36,100  Climbing Aus ATC (RADAR)
02:48AM -33.4400 153.2300 220° Southwest 441 507 36,000 -180 Descending FlightAware
02:48AM -33.4870 153.1820 220° Southwest 441 507 36,000 60 Level FlightAware
02:49AM -33.5640 153.1029 220° Southwest 444 511 36,100  Climbing Aus ATC (RADAR)
02:49AM -33.5690 153.0980 221° Southwest 442 509 36,000  Descending FlightAware
02:49AM -33.6026 153.0629 221° Southwest 443 510 36,100 -240 Climbing Aus ATC (RADAR)
02:49AM -33.6160 153.0490 221° Southwest 436 502 35,900 -2,160 Descending FlightAware
02:50AM -33.6610 153.0030 221° Southwest 436 502 34,600 -2,880 Descending FlightAware
02:50AM -33.6860 152.9766 221° Southwest 436 502 33,900 -3,300 Descending Aus ATC (RADAR)
02:51AM -33.7170 152.9450 221° Southwest 441 507 32,700 -2,700 Descending FlightAware
02:51AM -33.7553 152.9049 221° Southwest 439 505 31,900 -2,160 Descending Aus ATC (RADAR)
02:51AM -33.7933 152.8658 221° Southwest 434 499 31,000 -2,520 Descending Aus ATC (RADAR)
02:52AM -33.8159 152.8427 221° Southwest 424 488 30,100 -2,220 Descending FlightAware ADS-B (YSSY / SYD)
02:53AM -33.9101 152.7449 221° Southwest 411 473 28,100 -2,160 Descending Aus ATC (RADAR)
02:53AM -33.9287 152.7256 221° Southwest 401 461 27,400 -2,160 Descending FlightAware ADS-B (YSSY / SYD)
02:54AM -33.9840 152.6680 221° Southwest 391 450 26,100 -2,040 Descending FlightAware
02:54AM -34.0292 152.6206 221° Southwest 382 440 25,000 -2,100 Descending FlightAware ADS-B
02:55AM -34.0651 152.5757 226° Southwest 382 440 24,000 -2,040 Descending FlightAware ADS-B
02:55AM -34.0772 152.5162 256° West 374 430 23,000 -1,920 Descending FlightAware ADS-B
02:56AM -34.0710 152.4470 256° West 372 428 22,000 -1,860 Descending Aus ATC (RADAR)
02:56AM -34.0710 152.4430 277° West 373 429 21,800 -1,920 Descending FlightAware
02:56AM -34.0657 152.3957 277° West 369 425 21,200 -2,520 Descending Aus ATC (RADAR)
02:57AM -34.0607 152.3393 277° West 375 432 19,900 -2,460 Descending FlightAware ADS-B
02:57AM -34.0548 152.2774 277° West 374 430 18,900 -1,920 Descending FlightAware ADS-B
02:58AM -34.0482 152.2084 277° West 372 428 17,900 -1,740 Descending FlightAware ADS-B
02:58AM -34.0415 152.1373 277° West 371 427 16,900 -1,860 Descending FlightAware ADS-B
02:59AM -34.0355 152.0753 277° West 370 426 15,900 -2,040 Descending FlightAware ADS-B
02:59AM -34.0277 151.9962 277° West 362 417 14,600 -1,980 Descending FlightAware ADS-B
03:00AM -34.0216 151.9355 277° West 353 406 13,600 -1,920 Descending FlightAware ADS-B
03:00AM -34.0147 151.8680 277° West 343 395 12,500 -1,740 Descending FlightAware ADS-B
03:01AM -34.0081 151.8046 277° West 336 387 11,600 -1,800 Descending Aus ATC (RADAR)
03:01AM -34.0070 151.7935 277° West 332 382 11,300 -2,160 Descending FlightAware ADS-B
03:02AM -34.0009 151.7329 277° West 330 380 10,200 -1,260 Descending FlightAware ADS-B
03:02AM -33.9957 151.6821 277° West 311 358 10,000 -660 Descending FlightAware ADS-B
03:02AM -33.9924 151.6497 277° West 294 338 9,700 -1,260 Descending FlightAware ADS-B (YSSY / SYD)
03:03AM -33.9924 151.6497 277° West 294 338 9,100 -1,500 Descending FlightAware ADS-B (YSSY / SYD)
03:03AM -33.9859 151.5860 277° West 287 330 8,700 -1,320 Descending FlightAware ADS-B
03:03AM -33.9824 151.5517 277° West 280 322 8,300 -960 Descending FlightAware ADS-B
03:04AM -33.9820 151.5475 277° West 279 321 8,300 -1,200 Level FlightAware ADS-B (YSSY / SYD)
03:04AM -33.9781 151.5121 277° West 268 308 7,800 -1,200 Descending FlightAware ADS-B
03:04AM -33.9753 151.4865 278° West 263 303 7,500 -720 Descending FlightAware ADS-B
03:05AM -33.9721 151.4574 277° West 262 302 7,300 -780 Descending FlightAware ADS-B (YSSY / SYD)
03:05AM -33.9691 151.4275 277° West 262 302 7,000 -1,080 Descending FlightAware ADS-B
03:05AM -33.9684 151.4083 272° West 262 302 6,800 -1,080 Descending FlightAware ADS-B (YSSY / SYD)
03:05AM -33.9714 151.3946 255° West 262 302 6,600 -900 Descending FlightAware ADS-B (YSSY / SYD)
03:05AM -33.9770 151.3828 240° Southwest 263 303 6,500 -900 Descending FlightAware ADS-B (YSSY / SYD)
03:06AM -33.9876 151.3708 223° Southwest 266 306 6,300 -1,140 Descending FlightAware ADS-B
03:06AM -33.9989 151.3643 205° Southwest 268 308 6,100 -1,020 Descending FlightAware ADS-B (YSSY / SYD)
03:06AM -34.0225 151.3546 199° South 267 307 5,800 -900 Descending FlightAware ADS-B (YSSY / SYD)
03:06AM -34.0460 151.3482 193° South 269 310 5,500 -1,020 Descending FlightAware ADS-B (YSSY / SYD)
03:07AM -34.0596 151.3501 173° South 268 308 5,300 -1,200 Descending FlightAware ADS-B (YSSY / SYD)
03:07AM -34.0681 151.3524 167° South 264 304 5,100 -900 Descending FlightAware ADS-B (YSSY / SYD)
03:07AM -34.0834 151.3564 168° South 267 307 5,000 -780 Descending FlightAware ADS-B
03:07AM -34.0796 151.3555 348° North 258 297 4,900 -960 Descending FlightAware ADS-B (YSSY / SYD)
03:07AM -34.1058 151.3580 175° South 253 291 4,700 -1,260 Descending FlightAware ADS-B (YSSY / SYD)
03:07AM -34.1174 151.3517 204° Southwest 251 289 4,400 -1,440 Descending FlightAware ADS-B (YSSY / SYD)
03:08AM -34.1251 151.3426 224° Southwest 252 290 4,200 -1,320 Descending FlightAware ADS-B (YSSY / SYD)
03:08AM -34.1277 151.3373 239° Southwest 252 290 4,100 -1,380 Descending FlightAware ADS-B
03:08AM -34.1296 151.3320 247° West 254 292 4,000 -1,200 Descending FlightAware ADS-B (YSSY / SYD)
03:08AM -34.1368 151.3028 253° West 236 272 3,600 -1,200 Descending FlightAware ADS-B (YSSY / SYD)
03:08AM -34.1405 151.2846 256° West 229 264 3,300 -1,200 Descending FlightAware ADS-B (YSSY / SYD)
03:08AM -34.1403 151.2769 272° West 228 262 3,200 -960 Descending FlightAware ADS-B
03:09AM -34.1382 151.2688 287° West 221 254 3,100 -360 Descending FlightAware ADS-B (YSSY / SYD)
03:09AM -34.1307 151.2575 309° West 208 239 3,100 -360 Level FlightAware ADS-B
03:09AM -34.1364 151.2650 133° Southeast 205 236 3,000 -900 Descending FlightAware ADS-B (YSSY / SYD)
03:09AM -34.1207 151.2465 316° Northwest 202 232 2,900 -840 Descending FlightAware ADS-B (YSSY / SYD)
03:09AM -34.1103 151.2353 318° Northwest 194 223 2,700 -900 Descending FlightAware ADS-B (YSSY / SYD)
03:09AM -34.1030 151.2302 330° Northwest 185 213 2,500 -1,020 Descending FlightAware ADS-B
03:10AM -34.1030 151.2302 330° Northwest 182 209 2,400 -960 Descending FlightAware ADS-B
03:10AM -34.0713 151.2198 345° North 174 200 1,900 -960 Descending FlightAware ADS-B
03:10AM -34.0566 151.2161 348° North 160 184 1,600 -960 Descending FlightAware ADS-B
03:11AM -34.0423 151.2123 348° North 149 171 1,300 -840 Descending FlightAware ADS-B
03:11AM -34.0307 151.2095 349° North 143 165 1,100 -720 Descending FlightAware ADS-B
03:11AM -34.0150 151.2054 348° North 141 162 800 -840 Descending FlightAware ADS-B (YSSY / SYD)
03:12AM -34.0047 151.2027 348° North 142 163 500 -840 Descending FlightAware ADS-B
03:12AM -33.9902 151.1988 348° North 143 165 300 -660 Descending FlightAware ADS-B